Time;durP1;ratioP1;P1;durP2;ratioP2;P2;SDS_P1;SDS_P2;PMS_P1;PMS_P2;Temp;Humidity;BMP_temperature;BMP_pressure;BME280_temperature;BME280_humidity;BME280_pressure;Samples;Min_cycle;Max_cycle;Signal;HPM_P1;HPM_P2
2021/03/03 00:01:12;;;;;;;;;;;;;;;25.34;23.63;101971.69;5140315;27;790;-33
2021/03/03 00:03:37;;;;;;;;;;;;;;;25.85;22.88;101972.41;5140089;27;1163;-36
2021/03/03 00:06:03;;;;;;;;;;;;;;;25.94;22.75;101967.13;5140146;27;862;-36
2021/03/03 00:08:28;;;;;;;;;;;;;;;26.12;22.54;101962.69;5140001;27;1909;-36
2021/03/03 00:10:53;;;;;;;;;;;;;;;26.16;22.56;101974.88;5140233;27;949;-36
2021/03/03 00:13:19;;;;;;;;;;;;;;;26.09;22.39;101960.25;5140349;27;753;-37
2021/03/03 00:15:44;;;;;;;;;;;;;;;25.51;23.29;101962.88;5139846;27;768;-35
2021/03/03 00:18:09;;;;;;;;;;;;;;;25.28;23.59;101965.00;5124662;27;1580;-37
2021/03/03 00:20:34;;;;;;;;;;;;;;;25.78;23.08;101964.03;5120046;28;901;-33
2021/03/03 00:23:00;;;;;;;;;;;;;;;26.03;22.57;101963.56;5118801;28;763;-33
2021/03/03 00:25:25;;;;;;;;;;;;;;;26.17;22.41;101959.56;5132120;27;941;-33
2021/03/03 00:27:50;;;;;;;;;;;;;;;26.11;22.62;101958.28;5140096;27;1905;-33
2021/03/03 00:30:16;;;;;;;;;;;;;;;25.13;23.86;101960.03;5139526;27;739;-33
2021/03/03 00:32:41;;;;;;;;;;;;;;;24.98;24.06;101958.75;5140068;27;819;-33
2021/03/03 00:35:07;;;;;;;;;;;;;;;25.61;23.39;101959.34;5139885;27;742;-33
2021/03/03 00:37:32;;;;;;;;;;;;;;;25.94;22.88;101953.66;5138163;27;1086;-33
2021/03/03 00:39:57;;;;;;;;;;;;;;;26.09;22.64;101954.88;5139641;27;977;-33
2021/03/03 00:42:23;;;;;;;;;;;;;;;26.22;22.41;101959.97;5139569;27;1141;-33
2021/03/03 00:44:48;;;;;;;;;;;;;;;26.30;22.39;101953.81;5139403;27;883;-33
2021/03/03 00:47:13;;;;;;;;;;;;;;;25.25;23.72;101954.53;5139273;27;1985;-33
2021/03/03 00:49:39;;;;;;;;;;;;;;;24.99;23.92;101957.78;5139582;27;751;-32
2021/03/03 00:52:04;;;;;;;;;;;;;;;25.65;23.10;101953.56;5139622;27;1084;-33
2021/03/03 00:54:29;;;;;;;;;;;;;;;26.00;22.59;101955.75;5138990;27;972;-33
2021/03/03 00:56:55;;;;;;;;;;;;;;;26.08;22.49;101963.09;5139261;27;806;-33
2021/03/03 00:59:20;;;;;;;;;;;;;;;26.19;22.63;101952.16;5139223;27;863;-33
2021/03/03 01:01:45;;;;;;;;;;;;;;;26.09;22.58;101951.34;5139103;27;758;-37
2021/03/03 01:04:10;;;;;;;;;;;;;;;25.53;23.29;101946.56;5139207;27;833;-34
2021/03/03 01:06:36;;;;;;;;;;;;;;;25.24;23.66;101948.28;5139445;27;1972;-37
2021/03/03 01:09:01;;;;;;;;;;;;;;;25.71;23.15;101948.59;5138425;27;1007;-36
2021/03/03 01:11:26;;;;;;;;;;;;;;;25.98;22.79;101947.81;5139030;27;801;-34
2021/03/03 01:13:52;;;;;;;;;;;;;;;26.09;22.82;101945.94;5138869;27;854;-37
2021/03/03 01:16:17;;;;;;;;;;;;;;;26.35;22.16;101938.06;5138830;27;838;-34
2021/03/03 01:18:42;;;;;;;;;;;;;;;25.24;23.66;101939.38;5118457;27;1739;-37
2021/03/03 01:21:07;;;;;;;;;;;;;;;25.33;23.52;101946.59;5118601;28;791;-36
2021/03/03 01:23:33;;;;;;;;;;;;;;;25.67;23.30;101939.94;5118096;28;866;-35
2021/03/03 01:25:58;;;;;;;;;;;;;;;25.98;22.94;101945.13;5137438;27;913;-36
2021/03/03 01:28:23;;;;;;;;;;;;;;;26.04;22.55;101947.22;5138869;27;1897;-37
2021/03/03 01:30:49;;;;;;;;;;;;;;;26.19;22.61;101945.91;5138121;27;850;-36
2021/03/03 01:33:24;;;;;;;;;;;;;;;26.31;22.35;101947.41;5139123;27;802;-37
2021/03/03 01:35:49;;;;;;;;;;;;;;;25.27;23.60;101941.78;5138511;27;830;-36
2021/03/03 01:38:14;;;;;;;;;;;;;;;25.25;23.62;101947.31;5138301;27;770;-37
2021/03/03 01:40:39;;;;;;;;;;;;;;;25.61;23.36;101940.50;5138235;27;1112;-33
2021/03/03 01:43:05;;;;;;;;;;;;;;;25.92;23.06;101943.84;5138238;27;1204;-33
2021/03/03 01:45:30;;;;;;;;;;;;;;;26.11;22.73;101944.78;5137999;27;808;-33
2021/03/03 01:47:55;;;;;;;;;;;;;;;26.19;22.78;101938.69;5138217;27;1886;-34
2021/03/03 01:50:21;;;;;;;;;;;;;;;26.36;22.34;101947.03;5138608;27;806;-33
2021/03/03 01:52:46;;;;;;;;;;;;;;;25.24;23.66;101947.44;5137554;27;1392;-33
2021/03/03 01:55:12;;;;;;;;;;;;;;;25.21;23.69;101947.75;5138237;27;976;-33
2021/03/03 01:57:40;;;;;;;;;;;;;;;25.61;23.34;101951.28;5138641;27;747;-33
2021/03/03 02:00:06;;;;;;;;;;;;;;;26.10;22.83;101955.72;5137019;27;861;-33
2021/03/03 02:02:31;;;;;;;;;;;;;;;26.17;22.67;101959.56;5138577;27;735;-34
2021/03/03 02:04:56;;;;;;;;;;;;;;;26.19;22.50;101962.09;5138265;27;838;-33
2021/03/03 02:07:37;;;;;;;;;;;;;;;25.54;23.23;101956.38;5137537;27;1948;-33
2021/03/03 02:10:35;;;;;;;;;;;;;;;24.87;24.35;101954.31;5137994;27;941;-33
2021/03/03 02:13:00;;;;;;;;;;;;;;;25.30;23.84;101955.81;5103271;27;1218;-33
2021/03/03 02:15:25;;;;;;;;;;;;;;;25.84;23.11;101957.19;5137655;27;763;-33
2021/03/03 02:17:50;;;;;;;;;;;;;;;26.09;22.76;101970.22;5123727;27;1600;-33
2021/03/03 02:20:16;;;;;;;;;;;;;;;25.34;23.60;101963.63;5116033;28;775;-33
2021/03/03 02:22:57;;;;;;;;;;;;;;;25.52;23.60;101969.13;5115684;28;815;-33
2021/03/03 02:25:31;;;;;;;;;;;;;;;25.29;23.75;101981.03;5129857;27;946;-33
2021/03/03 02:27:59;;;;;;;;;;;;;;;25.85;23.14;101972.41;5137992;27;1960;-33
2021/03/03 02:30:25;;;;;;;;;;;;;;;25.91;22.97;101979.03;5137480;27;854;-33
2021/03/03 02:32:50;;;;;;;;;;;;;;;26.08;22.87;101979.28;5136557;27;755;-33
2021/03/03 02:35:15;;;;;;;;;;;;;;;26.20;22.72;101977.28;5136425;27;783;-33
2021/03/03 02:37:41;;;;;;;;;;;;;;;25.05;24.01;101976.91;5136149;27;824;-33
2021/03/03 02:40:06;;;;;;;;;;;;;;;25.00;24.17;101972.91;5136344;27;949;-33
2021/03/03 02:42:32;;;;;;;;;;;;;;;25.34;23.93;101969.81;5137159;27;1211;-32
2021/03/03 02:44:58;;;;;;;;;;;;;;;25.71;23.32;101973.69;5136053;27;842;-32
2021/03/03 02:47:23;;;;;;;;;;;;;;;25.86;23.11;101978.66;5136218;27;1976;-32
2021/03/03 02:49:48;;;;;;;;;;;;;;;26.08;22.84;101990.06;5137575;28;749;-33
2021/03/03 02:52:14;;;;;;;;;;;;;;;26.21;22.58;101993.31;5136364;28;785;-33
2021/03/03 02:54:39;;;;;;;;;;;;;;;25.64;23.02;101991.44;5137157;28;972;-33
2021/03/03 02:57:04;;;;;;;;;;;;;;;25.07;24.10;101992.91;5136042;28;1486;-33
2021/03/03 02:59:33;;;;;;;;;;;;;;;25.15;24.06;101990.38;5137213;28;876;-33
2021/03/03 03:01:58;;;;;;;;;;;;;;;25.60;23.46;101987.28;5137275;28;889;-33
2021/03/03 03:04:23;;;;;;;;;;;;;;;25.70;23.19;101982.78;5137474;28;766;-33
2021/03/03 03:06:49;;;;;;;;;;;;;;;25.95;23.05;101985.00;5135881;28;1959;-33
2021/03/03 03:09:14;;;;;;;;;;;;;;;26.19;22.48;101980.97;5135778;28;952;-33
2021/03/03 03:11:50;;;;;;;;;;;;;;;26.24;22.60;101986.78;5141372;27;743;-33
2021/03/03 03:14:18;;;;;;;;;;;;;;;25.04;23.75;101988.66;5141021;27;767;-33
2021/03/03 03:16:44;;;;;;;;;;;;;;;24.55;24.68;101985.78;5138111;27;1651;-33
2021/03/03 03:19:11;;;;;;;;;;;;;;;25.59;23.29;101986.41;5119706;28;854;-33
2021/03/03 03:21:37;;;;;;;;;;;;;;;25.89;22.81;101994.53;5120394;28;850;-33
2021/03/03 03:24:03;;;;;;;;;;;;;;;25.96;22.79;101987.53;5121975;27;1062;-33
2021/03/03 03:26:28;;;;;;;;;;;;;;;26.08;22.79;101990.06;5141372;27;806;-33
2021/03/03 03:28:54;;;;;;;;;;;;;;;26.20;22.47;101994.31;5139513;27;1970;-33
2021/03/03 03:31:19;;;;;;;;;;;;;;;26.36;21.97;101996.41;5140338;27;767;-32
2021/03/03 03:33:44;;;;;;;;;;;;;;;25.17;23.46;102007.22;5139936;27;830;-33
2021/03/03 03:36:09;;;;;;;;;;;;;;;24.68;24.02;102007.06;5139446;27;810;-33
2021/03/03 03:38:35;;;;;;;;;;;;;;;25.42;23.28;102013.06;5141209;27;838;-33
2021/03/03 03:41:00;;;;;;;;;;;;;;;25.47;23.15;102006.44;5140856;27;937;-33
2021/03/03 03:43:26;;;;;;;;;;;;;;;25.48;22.84;102010.81;5140221;27;1109;-33
2021/03/03 03:45:51;;;;;;;;;;;;;;;25.47;22.99;102007.28;5140725;27;850;-33
2021/03/03 03:48:16;;;;;;;;;;;;;;;26.03;22.53;102014.78;5139636;27;1979;-33
2021/03/03 03:50:42;;;;;;;;;;;;;;;25.34;23.01;102018.31;5139541;27;802;-33
2021/03/03 03:53:07;;;;;;;;;;;;;;;24.45;24.43;102028.78;5140856;27;791;-33
2021/03/03 03:55:33;;;;;;;;;;;;;;;25.12;23.75;102022.13;5139162;27;1005;-33
2021/03/03 03:57:58;;;;;;;;;;;;;;;25.61;23.06;102026.72;5139814;27;843;-33
2021/03/03 04:00:23;;;;;;;;;;;;;;;25.68;23.02;102034.13;5139151;27;857;-40
2021/03/03 04:02:49;;;;;;;;;;;;;;;25.96;22.78;102037.94;5140821;27;798;-35
2021/03/03 04:05:14;;;;;;;;;;;;;;;26.03;22.36;102042.59;5140329;27;838;-32
2021/03/03 04:07:40;;;;;;;;;;;;;;;26.18;22.11;102034.06;5140568;27;1906;-32
2021/03/03 04:10:06;;;;;;;;;;;;;;;25.90;22.74;102042.06;5140195;27;1012;-33
2021/03/03 04:12:31;;;;;;;;;;;;;;;25.84;22.76;102045.31;5139631;27;857;-33
2021/03/03 04:14:57;;;;;;;;;;;;;;;25.81;22.76;102046.44;5140400;27;762;-36
2021/03/03 04:17:22;;;;;;;;;;;;;;;25.86;22.63;102057.66;5131113;27;1827;-38
2021/03/03 04:19:47;;;;;;;;;;;;;;;25.62;23.02;102052.66;5119441;28;921;-31
2021/03/03 04:22:13;;;;;;;;;;;;;;;25.89;22.83;102064.63;5117530;28;882;-32
2021/03/03 04:24:38;;;;;;;;;;;;;;;26.02;22.87;102070.56;5117968;28;824;-33
2021/03/03 04:27:04;;;;;;;;;;;;;;;25.90;23.07;102077.94;5119175;28;1963;-32
2021/03/03 04:29:29;;;;;;;;;;;;;;;25.81;23.10;102076.09;5119525;28;750;-32
2021/03/03 04:31:54;;;;;;;;;;;;;;;25.29;23.72;102085.25;5119279;28;780;-33
2021/03/03 04:34:20;;;;;;;;;;;;;;;25.27;23.88;102080.00;5118949;28;806;-32
2021/03/03 04:36:45;;;;;;;;;;;;;;;25.86;23.05;102083.78;5119376;28;862;-32
2021/03/03 04:39:10;;;;;;;;;;;;;;;25.91;23.10;102087.72;5118907;28;938;-32
2021/03/03 04:41:35;;;;;;;;;;;;;;;25.84;23.29;102086.59;5119251;28;1080;-33
2021/03/03 04:44:01;;;;;;;;;;;;;;;25.78;23.35;102098.81;5118631;28;925;-33
2021/03/03 04:46:26;;;;;;;;;;;;;;;24.45;19.70;102104.09;5119119;28;850;-36
2021/03/03 04:48:51;;;;;;;;;;;;;;;19.53;22.33;102100.81;5117343;28;1969;-34
2021/03/03 04:51:16;;;;;;;;;;;;;;;18.59;23.17;102098.50;5118273;28;925;-31
2021/03/03 04:53:42;;;;;;;;;;;;;;;19.42;22.33;102097.03;5118597;28;816;-31
2021/03/03 04:56:08;;;;;;;;;;;;;;;20.01;22.43;102105.72;5130544;27;1271;-39
2021/03/03 04:58:33;;;;;;;;;;;;;;;21.16;21.50;102096.25;5121373;27;862;-43
2021/03/03 05:00:58;;;;;;;;;;;;;;;21.32;21.20;102105.88;5118467;28;882;-33
2021/03/03 05:03:24;;;;;;;;;;;;;;;22.46;19.49;102108.25;5119118;28;770;-31
2021/03/03 05:05:50;;;;;;;;;;;;;;;22.79;19.07;102114.69;5118344;28;913;-31
2021/03/03 05:08:16;;;;;;;;;;;;;;;22.88;19.04;102110.44;5117973;28;1893;-37
2021/03/03 05:10:41;;;;;;;;;;;;;;;23.02;19.37;102113.88;5118218;28;981;-32
2021/03/03 05:13:12;;;;;;;;;;;;;;;23.27;18.85;102117.28;5118214;28;795;-32
2021/03/03 05:15:38;;;;;;;;;;;;;;;23.24;18.65;102116.53;5118443;28;882;-36
2021/03/03 05:18:03;;;;;;;;;;;;;;;23.20;18.59;102123.16;5118627;28;1731;-32
2021/03/03 05:20:28;;;;;;;;;;;;;;;23.06;18.72;102128.72;5118200;28;787;-32
2021/03/03 05:22:54;;;;;;;;;;;;;;;23.27;18.40;102138.75;5118410;28;820;-32
2021/03/03 05:25:19;;;;;;;;;;;;;;;22.81;18.70;102128.84;5118109;28;969;-32
2021/03/03 05:27:44;;;;;;;;;;;;;;;22.99;18.57;102134.59;5115286;28;1894;-33
2021/03/03 05:30:10;;;;;;;;;;;;;;;23.18;18.57;102137.66;5117517;28;815;-32
2021/03/03 05:32:35;;;;;;;;;;;;;;;23.30;18.34;102128.63;5118266;28;812;-34
2021/03/03 05:35:01;;;;;;;;;;;;;;;23.36;18.22;102133.50;5116552;28;790;-34
2021/03/03 05:37:26;;;;;;;;;;;;;;;23.31;18.45;102140.19;5118491;27;801;-33
2021/03/03 05:39:51;;;;;;;;;;;;;;;23.51;18.28;102144.00;5126201;27;993;-34
2021/03/03 05:42:16;;;;;;;;;;;;;;;23.93;17.95;102143.28;5138095;27;1137;-36
2021/03/03 05:44:45;;;;;;;;;;;;;;;23.98;17.88;102145.59;5138591;27;751;-31
2021/03/03 05:47:10;;;;;;;;;;;;;;;23.70;18.06;102146.06;5138486;27;1963;-32
2021/03/03 05:49:36;;;;;;;;;;;;;;;23.18;18.65;102153.75;5138021;27;906;-33
2021/03/03 05:52:01;;;;;;;;;;;;;;;23.68;18.27;102156.06;5136872;27;840;-43
2021/03/03 05:54:26;;;;;;;;;;;;;;;23.23;18.65;102156.94;5137984;27;960;-33
2021/03/03 05:56:52;;;;;;;;;;;;;;;23.47;18.48;102170.25;5137983;27;824;-37
2021/03/03 05:59:17;;;;;;;;;;;;;;;23.36;18.88;102168.41;5138576;27;837;-37
2021/03/03 06:01:45;;;;;;;;;;;;;;;23.73;19.15;102167.28;5138297;27;766;-47
2021/03/03 06:04:11;;;;;;;;;;;;;;;24.05;19.29;102172.81;5137765;27;802;-37
2021/03/03 06:06:39;;;;;;;;;;;;;;;24.28;19.26;102170.06;5138527;27;812;-35
2021/03/03 06:09:04;;;;;;;;;;;;;;;24.15;19.50;102183.66;5136692;27;992;-38
2021/03/03 06:11:29;;;;;;;;;;;;;;;24.33;19.56;102178.59;5137598;27;842;-37
2021/03/03 06:13:58;;;;;;;;;;;;;;;24.68;19.35;102185.53;5138066;27;755;-34
2021/03/03 06:16:23;;;;;;;;;;;;;;;25.54;18.43;102183.53;5137163;27;1561;-42
2021/03/03 06:18:48;;;;;;;;;;;;;;;25.83;18.38;102190.03;5116022;28;739;-34
2021/03/03 06:21:27;;;;;;;;;;;;;;;25.84;18.30;102182.81;5113606;28;862;-34
2021/03/03 06:24:05;;;;;;;;;;;;;;;26.08;18.42;102189.63;5116781;28;823;-35
2021/03/03 06:26:31;;;;;;;;;;;;;;;26.23;18.41;102192.75;5096566;28;743;-34
2021/03/03 06:28:56;;;;;;;;;;;;;;;26.27;18.21;102195.03;5096745;28;1971;-33
2021/03/03 06:31:31;;;;;;;;;;;;;;;26.34;18.57;102198.03;5096729;28;814;-35
2021/03/03 06:34:09;;;;;;;;;;;;;;;26.75;18.10;102197.88;5096270;28;975;-34
2021/03/03 06:36:34;;;;;;;;;;;;;;;26.63;18.24;102196.31;5096716;28;773;-35
2021/03/03 06:39:19;;;;;;;;;;;;;;;26.50;18.66;102199.31;5097509;28;946;-34
2021/03/03 06:41:44;;;;;;;;;;;;;;;26.57;18.47;102204.97;5116301;28;1388;-44
2021/03/03 06:44:09;;;;;;;;;;;;;;;26.57;18.68;102205.84;5116459;28;798;-35
2021/03/03 06:46:35;;;;;;;;;;;;;;;27.14;18.37;102202.31;5116744;28;809;-35
2021/03/03 06:49:00;;;;;;;;;;;;;;;27.36;18.19;102207.50;5116468;28;1914;-33
2021/03/03 06:51:28;;;;;;;;;;;;;;;26.78;18.59;102208.38;5115370;28;832;-42
2021/03/03 06:53:55;;;;;;;;;;;;;;;26.75;18.83;102197.00;5116538;28;965;-33
2021/03/03 06:56:38;;;;;;;;;;;;;;;26.97;19.03;102205.75;5116224;28;842;-34
2021/03/03 06:59:10;;;;;;;;;;;;;;;26.76;19.24;102198.69;5116589;28;742;-43
2021/03/03 07:01:35;;;;;;;;;;;;;;;27.17;18.84;102221.94;5116642;28;854;-50
2021/03/03 07:04:00;;;;;;;;;;;;;;;27.67;18.14;102207.19;5115561;28;961;-33
2021/03/03 07:06:30;;;;;;;;;;;;;;;27.16;18.79;102212.13;5116898;28;893;-44
2021/03/03 07:08:56;;;;;;;;;;;;;;;27.75;18.60;102218.13;5116497;28;1980;-35
2021/03/03 07:11:21;;;;;;;;;;;;;;;28.03;18.11;102211.81;5116300;28;791;-34
2021/03/03 07:13:46;;;;;;;;;;;;;;;27.86;18.55;102218.94;5116649;28;767;-34
2021/03/03 07:16:12;;;;;;;;;;;;;;;28.22;18.20;102216.25;5114963;28;1008;-33
2021/03/03 07:18:37;;;;;;;;;;;;;;;28.45;18.18;102209.53;5116144;28;1657;-34
2021/03/03 07:21:03;;;;;;;;;;;;;;;28.50;17.84;102209.03;5116420;28;1013;-43
2021/03/03 07:23:45;;;;;;;;;;;;;;;28.44;17.85;102213.25;5116584;28;854;-34
2021/03/03 07:26:11;;;;;;;;;;;;;;;27.68;18.67;102211.63;5116177;28;946;-34
2021/03/03 07:28:36;;;;;;;;;;;;;;;28.35;18.29;102221.28;5116625;28;1967;-34
2021/03/03 07:31:02;;;;;;;;;;;;;;;28.56;18.30;102222.81;5116589;28;813;-42
2021/03/03 07:33:27;;;;;;;;;;;;;;;28.34;18.49;102216.88;5115977;28;751;-34
2021/03/03 07:35:52;;;;;;;;;;;;;;;28.47;18.12;102223.75;5114938;28;872;-35
2021/03/03 07:38:17;;;;;;;;;;;;;;;28.76;17.86;102217.19;5116605;28;846;-34
2021/03/03 07:40:43;;;;;;;;;;;;;;;28.77;17.96;102215.34;5115920;28;918;-34
2021/03/03 07:43:08;;;;;;;;;;;;;;;28.76;17.93;102213.66;5114835;28;1253;-34
2021/03/03 07:45:37;;;;;;;;;;;;;;;28.84;18.00;102219.94;5115232;28;842;-34
2021/03/03 07:48:03;;;;;;;;;;;;;;;28.79;18.06;102226.88;5116159;28;1921;-34
2021/03/03 07:50:29;;;;;;;;;;;;;;;28.90;17.94;102228.44;5116454;28;807;-34
2021/03/03 07:52:54;;;;;;;;;;;;;;;28.89;18.18;102224.06;5115100;28;913;-34
2021/03/03 07:55:19;;;;;;;;;;;;;;;28.82;18.48;102219.28;5115735;28;961;-34
2021/03/03 07:57:46;;;;;;;;;;;;;;;28.85;18.22;102223.53;5117985;28;832;-34
2021/03/03 08:00:12;;;;;;;;;;;;;;;28.92;18.17;102229.16;5118771;28;779;-42
2021/03/03 08:02:49;;;;;;;;;;;;;;;28.85;18.40;102218.09;5118402;28;834;-39
2021/03/03 08:05:34;;;;;;;;;;;;;;;29.00;18.57;102237.34;5119862;28;751;-34
2021/03/03 08:08:17;;;;;;;;;;;;;;;29.04;18.20;102227.91;5119384;28;1933;-34
2021/03/03 08:10:43;;;;;;;;;;;;;;;28.88;18.42;102223.19;5118897;28;1052;-35
2021/03/03 08:13:12;;;;;;;;;;;;;;;29.09;18.38;102230.13;5119702;28;957;-35
2021/03/03 08:15:39;;;;;;;;;;;;;;;28.99;18.66;102226.69;5119345;28;818;-34
2021/03/03 08:18:13;;;;;;;;;;;;;;;29.08;18.20;102229.28;5119385;28;1565;-34
2021/03/03 08:20:38;;;;;;;;;;;;;;;29.17;18.36;102227.47;5119129;28;909;-34
2021/03/03 08:23:04;;;;;;;;;;;;;;;29.17;18.39;102230.19;5120044;28;782;-34
2021/03/03 08:25:48;;;;;;;;;;;;;;;29.28;18.42;102226.34;5117545;28;1242;-34
2021/03/03 08:28:32;;;;;;;;;;;;;;;29.29;18.39;102230.75;5119282;28;1972;-34
2021/03/03 08:31:06;;;;;;;;;;;;;;;29.30;18.49;102231.59;5119116;28;815;-34
2021/03/03 08:33:35;;;;;;;;;;;;;;;29.32;18.31;102226.84;5119473;28;809;-34
2021/03/03 08:36:00;;;;;;;;;;;;;;;29.38;18.32;102234.34;5119457;28;743;-34
2021/03/03 08:38:25;;;;;;;;;;;;;;;29.45;18.29;102239.97;5119289;28;838;-34
2021/03/03 08:40:51;;;;;;;;;;;;;;;29.54;18.15;102243.56;5119169;28;1001;-35
2021/03/03 08:43:32;;;;;;;;;;;;;;;29.53;18.07;102239.16;5118776;28;1106;-34
2021/03/03 08:45:58;;;;;;;;;;;;;;;29.50;18.25;102237.59;5118876;28;822;-34
2021/03/03 08:48:23;;;;;;;;;;;;;;;29.61;18.00;102241.06;5119322;28;1918;-35
2021/03/03 08:50:48;;;;;;;;;;;;;;;29.57;18.18;102238.66;5119011;28;830;-34
2021/03/03 08:53:20;;;;;;;;;;;;;;;29.66;17.99;102244.97;5118683;28;836;-34
2021/03/03 08:55:47;;;;;;;;;;;;;;;29.72;18.17;102239.91;5119289;28;970;-34
2021/03/03 08:58:30;;;;;;;;;;;;;;;29.73;18.07;102237.03;5118809;28;790;-34
2021/03/03 09:00:55;;;;;;;;;;;;;;;29.71;18.38;102244.50;5118216;28;1064;-34
2021/03/03 09:03:21;;;;;;;;;;;;;;;29.76;18.39;102242.13;5118724;28;779;-34
2021/03/03 09:05:46;;;;;;;;;;;;;;;29.86;18.16;102243.88;5118782;28;755;-34
2021/03/03 09:08:18;;;;;;;;;;;;;;;29.87;17.94;102243.69;5118216;28;1965;-34
2021/03/03 09:10:43;;;;;;;;;;;;;;;29.87;18.36;102249.13;5118549;28;962;-35
2021/03/03 09:13:09;;;;;;;;;;;;;;;30.04;17.73;102246.44;5118267;28;838;-35
2021/03/03 09:15:34;;;;;;;;;;;;;;;30.11;18.08;102244.78;5116704;28;856;-34
2021/03/03 09:18:00;;;;;;;;;;;;;;;30.15;17.70;102258.84;5117999;28;1594;-35
2021/03/03 09:20:25;;;;;;;;;;;;;;;30.18;17.88;102255.78;5118677;28;751;-35
2021/03/03 09:22:50;;;;;;;;;;;;;;;30.18;17.99;102255.78;5117939;28;787;-34
2021/03/03 09:25:16;;;;;;;;;;;;;;;30.30;17.80;102253.63;5117757;28;985;-34
2021/03/03 09:27:51;;;;;;;;;;;;;;;30.28;17.92;102258.41;5118046;28;1901;-34
2021/03/03 09:30:17;;;;;;;;;;;;;;;30.35;17.83;102259.41;5118094;28;814;-35
2021/03/03 09:32:43;;;;;;;;;;;;;;;30.36;18.06;102262.97;5118448;28;739;-35
2021/03/03 09:35:08;;;;;;;;;;;;;;;30.40;17.94;102257.03;5118093;28;763;-35
2021/03/03 09:37:34;;;;;;;;;;;;;;;30.45;18.05;102259.22;5118544;28;775;-35
2021/03/03 09:39:59;;;;;;;;;;;;;;;30.47;17.81;102256.34;5117212;28;1001;-35
2021/03/03 09:42:25;;;;;;;;;;;;;;;30.56;17.85;102247.19;5118022;28;1070;-35
2021/03/03 09:44:54;;;;;;;;;;;;;;;30.57;17.90;102248.03;5118010;28;786;-35
2021/03/03 09:47:31;;;;;;;;;;;;;;;30.57;17.88;102256.16;5117514;28;1982;-35
2021/03/03 09:49:57;;;;;;;;;;;;;;;30.61;17.80;102255.69;5118015;28;785;-35
2021/03/03 09:52:23;;;;;;;;;;;;;;;30.64;17.92;102255.34;5117711;28;736;-34
2021/03/03 09:54:48;;;;;;;;;;;;;;;30.73;17.78;102256.16;5117476;28;981;-34
2021/03/03 09:57:18;;;;;;;;;;;;;;;30.73;17.96;102250.72;5117427;28;1609;-35
2021/03/03 09:59:44;;;;;;;;;;;;;;;30.82;17.83;102253.47;5117668;28;761;-35
2021/03/03 10:02:10;;;;;;;;;;;;;;;30.77;17.82;102248.53;5116120;28;549;-35
2021/03/03 10:04:36;;;;;;;;;;;;;;;30.81;18.02;102246.34;5117285;28;775;-35
2021/03/03 10:07:02;;;;;;;;;;;;;;;30.82;17.83;102253.47;5116204;28;1913;-35
2021/03/03 10:09:27;;;;;;;;;;;;;;;30.79;18.21;102249.22;5115702;28;1009;-35
2021/03/03 10:11:52;;;;;;;;;;;;;;;29.96;16.75;102243.72;5117330;28;728;-35
2021/03/03 10:14:18;;;;;;;;;;;;;;;29.64;17.20;102244.31;5116077;28;767;-35
2021/03/03 10:16:57;;;;;;;;;;;;;;;29.40;18.30;102239.59;5117060;28;1664;-42
2021/03/03 10:19:22;;;;;;;;;;;;;;;29.27;18.40;102248.19;5117160;28;810;-34
2021/03/03 10:21:47;;;;;;;;;;;;;;;29.02;18.78;102242.63;5116967;28;830;-40
2021/03/03 10:24:14;;;;;;;;;;;;;;;28.91;18.55;102244.53;5116823;28;930;-39
2021/03/03 10:26:45;;;;;;;;;;;;;;;28.76;18.63;102236.16;5116854;28;827;-35
2021/03/03 10:29:10;;;;;;;;;;;;;;;28.73;19.08;102241.88;5117018;28;1953;-34
2021/03/03 10:31:35;;;;;;;;;;;;;;;28.67;19.13;102237.09;5116995;28;794;-42
2021/03/03 10:34:07;;;;;;;;;;;;;;;28.66;18.98;102232.72;5115569;28;1305;-42
2021/03/03 10:36:35;;;;;;;;;;;;;;;28.55;19.00;102228.38;5117138;28;762;-37
2021/03/03 10:39:01;;;;;;;;;;;;;;;28.44;18.81;102222.22;5115300;28;1570;-36
2021/03/03 10:41:32;;;;;;;;;;;;;;;28.50;19.16;102225.28;5116957;28;1109;-34
2021/03/03 10:43:58;;;;;;;;;;;;;;;28.37;19.15;102215.72;5116589;28;807;-35
2021/03/03 10:46:24;;;;;;;;;;;;;;;28.50;18.93;102223.44;5116689;28;735;-36
2021/03/03 10:48:49;;;;;;;;;;;;;;;28.52;19.03;102215.16;5117221;28;1902;-34
2021/03/03 10:51:15;;;;;;;;;;;;;;;28.32;19.33;102204.47;5116762;28;878;-42
2021/03/03 10:53:44;;;;;;;;;;;;;;;28.34;19.31;102195.22;5116508;28;862;-34
2021/03/03 10:56:25;;;;;;;;;;;;;;;28.23;19.09;102192.72;5116598;28;961;-34
2021/03/03 10:58:54;;;;;;;;;;;;;;;28.14;19.51;102197.22;5116921;28;818;-34
2021/03/03 11:01:19;;;;;;;;;;;;;;;28.10;19.42;102185.88;5116842;28;797;-35
2021/03/03 11:04:03;;;;;;;;;;;;;;;28.20;19.56;102196.59;5116572;28;733;-34
2021/03/03 11:06:29;;;;;;;;;;;;;;;28.26;19.43;102197.81;5116631;28;846;-34
2021/03/03 11:08:54;;;;;;;;;;;;;;;28.36;19.61;102197.78;5116492;28;1897;-35
2021/03/03 11:11:19;;;;;;;;;;;;;;;28.66;18.85;102192.09;5116601;28;822;-35
2021/03/03 11:13:45;;;;;;;;;;;;;;;28.62;19.05;102204.22;5116752;28;822;-43
2021/03/03 11:16:10;;;;;;;;;;;;;;;28.71;18.96;102190.59;5116172;28;829;-35
2021/03/03 11:18:35;;;;;;;;;;;;;;;28.73;18.81;102199.41;5116491;28;1660;-36
2021/03/03 11:21:01;;;;;;;;;;;;;;;28.92;18.66;102196.66;5116740;28;812;-35
2021/03/03 11:23:26;;;;;;;;;;;;;;;28.99;18.46;102186.06;5115939;28;816;-35
2021/03/03 11:25:52;;;;;;;;;;;;;;;28.94;18.73;102187.38;5116526;28;954;-39
2021/03/03 11:28:17;;;;;;;;;;;;;;;28.93;18.52;102191.06;5116656;28;1983;-35
2021/03/03 11:30:42;;;;;;;;;;;;;;;29.05;18.39;102183.56;5116367;28;844;-43
2021/03/03 11:33:08;;;;;;;;;;;;;;;29.08;18.41;102176.94;5119035;28;729;-35
2021/03/03 11:35:33;;;;;;;;;;;;;;;29.22;18.19;102189.03;5120976;28;802;-40
2021/03/03 11:37:58;;;;;;;;;;;;;;;29.21;18.41;102190.91;5119911;28;499;-35
2021/03/03 11:40:24;;;;;;;;;;;;;;;29.34;18.27;102184.19;5119716;28;1493;-42
2021/03/03 11:42:49;;;;;;;;;;;;;;;29.28;18.32;102185.69;5119993;28;1082;-35
2021/03/03 11:45:14;;;;;;;;;;;;;;;29.31;18.22;102179.09;5119555;28;783;-35
2021/03/03 11:47:40;;;;;;;;;;;;;;;29.34;18.36;102170.63;5120169;28;1918;-35
2021/03/03 11:50:05;;;;;;;;;;;;;;;29.35;18.26;102172.31;5120390;28;763;-43
2021/03/03 11:52:31;;;;;;;;;;;;;;;29.52;17.94;102159.69;5119775;28;831;-35
2021/03/03 11:54:56;;;;;;;;;;;;;;;29.48;18.25;102171.84;5119594;28;988;-36
2021/03/03 11:57:21;;;;;;;;;;;;;;;29.45;18.11;102174.91;5120749;28;828;-35
2021/03/03 11:59:46;;;;;;;;;;;;;;;29.51;18.10;102173.41;5119957;28;828;-34
2021/03/03 12:02:12;;;;;;;;;;;;;;;29.78;17.83;102158.75;5119992;28;767;-35
2021/03/03 12:04:37;;;;;;;;;;;;;;;29.70;17.75;102164.16;5119685;28;502;-35
2021/03/03 12:07:02;;;;;;;;;;;;;;;29.88;17.67;102163.19;5119437;28;1902;-35
2021/03/03 12:09:28;;;;;;;;;;;;;;;29.87;17.93;102161.47;5119591;28;933;-35
2021/03/03 12:11:53;;;;;;;;;;;;;;;29.99;17.54;102161.97;5120095;28;802;-36
2021/03/03 12:14:18;;;;;;;;;;;;;;;29.95;17.52;102169.59;5119295;28;815;-35
2021/03/03 12:16:45;;;;;;;;;;;;;;;30.02;17.67;102164.34;5119774;28;1623;-42
2021/03/03 12:19:10;;;;;;;;;;;;;;;30.08;17.57;102166.38;5119218;28;835;-35
2021/03/03 12:21:36;;;;;;;;;;;;;;;30.27;17.19;102164.41;5119480;28;833;-43
2021/03/03 12:24:01;;;;;;;;;;;;;;;30.10;17.31;102167.06;5119360;28;981;-35
2021/03/03 12:26:26;;;;;;;;;;;;;;;30.12;17.37;102169.63;5119330;28;802;-35
2021/03/03 12:28:52;;;;;;;;;;;;;;;30.25;17.26;102167.28;5118986;28;1906;-35
2021/03/03 12:31:17;;;;;;;;;;;;;;;30.18;17.30;102161.66;5119495;28;807;-35
2021/03/03 12:33:42;;;;;;;;;;;;;;;30.21;17.25;102170.50;5119446;28;831;-35
2021/03/03 12:36:07;;;;;;;;;;;;;;;30.23;17.37;102177.44;5118830;28;799;-36
2021/03/03 12:38:33;;;;;;;;;;;;;;;30.15;17.70;102178.28;5119481;28;727;-36
2021/03/03 12:40:58;;;;;;;;;;;;;;;30.23;17.45;102176.63;5118790;28;930;-35
2021/03/03 12:43:23;;;;;;;;;;;;;;;30.21;17.60;102167.78;5117597;28;1096;-43
2021/03/03 12:45:49;;;;;;;;;;;;;;;30.21;17.32;102174.09;5119316;28;743;-35
2021/03/03 12:48:14;;;;;;;;;;;;;;;30.21;17.72;102174.09;5119336;28;1989;-43
2021/03/03 12:50:40;;;;;;;;;;;;;;;30.31;17.29;102177.44;5118366;28;919;-34
2021/03/03 12:53:05;;;;;;;;;;;;;;;30.28;17.42;102172.38;5119050;28;731;-35